createdAt,value
2023-01-12T00:00:58.880Z,23.10
2023-01-12T00:01:58.908Z,21.60
2023-01-12T00:02:58.866Z,27.40
2023-01-12T00:03:58.891Z,25.70
2023-01-12T00:04:58.930Z,25.20
2023-01-12T00:05:58.832Z,28.20
2023-01-12T00:06:58.833Z,28.20
2023-01-12T00:07:58.818Z,25.50
2023-01-12T00:08:58.817Z,23.40
2023-01-12T00:09:58.826Z,28.80
2023-01-12T00:10:58.792Z,25.90
2023-01-12T00:11:58.785Z,27.90
2023-01-12T00:12:58.779Z,30.30
2023-01-12T00:13:58.771Z,25.30
2023-01-12T00:14:58.770Z,28.10
2023-01-12T00:15:58.759Z,27.30
2023-01-12T00:16:58.744Z,27.10
2023-01-12T00:17:58.734Z,28.00
2023-01-12T00:18:58.737Z,24.70
2023-01-12T00:19:58.724Z,33.60
2023-01-12T00:20:58.701Z,24.10
2023-01-12T00:21:58.702Z,26.10
2023-01-12T00:22:58.689Z,24.90
2023-01-12T00:23:58.677Z,27.40
2023-01-12T00:24:58.687Z,26.80
2023-01-12T00:25:58.657Z,30.40
2023-01-12T00:26:58.650Z,25.90
2023-01-12T00:27:58.650Z,22.80
2023-01-12T00:28:58.631Z,27.60
2023-01-12T00:29:58.641Z,26.40
2023-01-12T00:30:58.625Z,26.10
2023-01-12T00:31:58.616Z,27.10
2023-01-12T00:32:58.601Z,28.50
2023-01-12T00:33:58.599Z,28.50
2023-01-12T00:34:58.591Z,23.80
2023-01-12T00:35:58.613Z,31.30
2023-01-12T00:36:58.618Z,24.80
2023-01-12T00:37:58.553Z,31.30
2023-01-12T00:38:58.546Z,22.90
2023-01-12T00:40:02.483Z,25.90
2023-01-12T00:40:59.523Z,31.20
2023-01-12T00:41:58.518Z,23.20
2023-01-12T00:42:58.503Z,24.30
2023-01-12T00:43:58.501Z,24.20
2023-01-12T00:44:58.528Z,21.80
2023-01-12T00:45:58.511Z,26.40
2023-01-12T00:46:58.490Z,28.20
2023-01-12T00:47:58.461Z,26.20
2023-01-12T00:48:58.453Z,29.90
2023-01-12T00:49:58.456Z,25.80
2023-01-12T00:50:58.433Z,19.30
2023-01-12T00:51:58.430Z,22.70
2023-01-12T00:52:58.421Z,21.70
2023-01-12T00:53:58.412Z,25.60
2023-01-12T00:54:58.444Z,20.10
2023-01-12T00:55:58.389Z,27.90
2023-01-12T00:56:58.403Z,26.00
2023-01-12T00:57:58.375Z,26.00
2023-01-12T00:58:58.368Z,27.30
2023-01-12T00:59:58.552Z,24.80
2023-01-12T01:00:58.371Z,24.30
2023-01-12T01:01:58.393Z,27.80
2023-01-12T01:02:58.365Z,22.30
2023-01-12T01:03:58.314Z,28.50
2023-01-12T01:04:58.331Z,29.00
2023-01-12T01:05:58.300Z,22.50
2023-01-12T01:06:58.318Z,28.50
2023-01-12T01:07:58.282Z,24.00
2023-01-12T01:08:58.284Z,26.40
2023-01-12T01:09:58.284Z,24.20
2023-01-12T01:10:58.260Z,20.90
2023-01-12T01:11:58.258Z,25.90
2023-01-12T01:12:58.239Z,27.00
2023-01-12T01:13:58.234Z,28.50
2023-01-12T01:14:58.241Z,28.20
2023-01-12T01:15:58.247Z,23.20
2023-01-12T01:16:58.199Z,27.10
2023-01-12T01:17:58.191Z,28.80
2023-01-12T01:18:58.185Z,31.60
2023-01-12T01:19:58.184Z,24.50
2023-01-12T01:20:58.164Z,25.90
2023-01-12T01:21:58.171Z,28.10
2023-01-12T01:22:58.148Z,28.60
2023-01-12T01:23:58.140Z,25.10
2023-01-12T01:24:58.130Z,26.10
2023-01-12T01:25:58.128Z,31.40
2023-01-12T01:26:58.143Z,26.40
2023-01-12T01:27:58.102Z,27.70
2023-01-12T01:28:58.109Z,27.40
2023-01-12T01:29:58.083Z,24.70
2023-01-12T01:30:58.100Z,27.70
2023-01-12T01:31:58.070Z,27.60
2023-01-12T01:32:58.058Z,25.30
2023-01-12T01:33:58.053Z,25.50
2023-01-12T01:34:58.031Z,26.00
2023-01-12T01:35:58.045Z,27.70
2023-01-12T01:36:58.037Z,26.00
2023-01-12T01:37:58.016Z,25.70
2023-01-12T01:38:58.021Z,32.90
2023-01-12T01:39:58.000Z,20.30
2023-01-12T01:40:57.990Z,28.00
2023-01-12T01:41:58.977Z,30.10
2023-01-12T01:42:57.966Z,30.50
2023-01-12T01:43:57.969Z,25.90
2023-01-12T01:44:57.960Z,29.40
2023-01-12T01:45:57.966Z,27.70
2023-01-12T01:46:57.930Z,35.00
2023-01-12T01:47:57.916Z,32.70
2023-01-12T01:48:57.912Z,35.40
2023-01-12T01:49:57.906Z,26.40
2023-01-12T01:50:57.903Z,34.60
2023-01-12T01:51:57.891Z,24.10
2023-01-12T01:52:57.881Z,32.50
2023-01-12T01:53:57.867Z,22.50
2023-01-12T01:54:57.922Z,28.10
2023-01-12T01:55:57.864Z,26.90
2023-01-12T01:56:57.867Z,29.90
2023-01-12T01:57:57.838Z,24.20
2023-01-12T01:58:57.835Z,29.80
2023-01-12T01:59:57.829Z,24.80
2023-01-12T02:00:57.865Z,29.50
2023-01-12T02:01:57.828Z,29.60
2023-01-12T02:02:57.863Z,32.20
2023-01-12T02:03:57.790Z,23.90
2023-01-12T02:04:57.802Z,27.30
2023-01-12T02:05:57.777Z,24.10
2023-01-12T02:06:57.777Z,27.80
2023-01-12T02:07:57.759Z,27.90
2023-01-12T02:08:57.740Z,31.80
2023-01-12T02:09:57.744Z,29.20
2023-01-12T02:10:57.738Z,36.00
2023-01-12T02:11:57.715Z,27.70
2023-01-12T02:12:57.721Z,27.10
2023-01-12T02:13:57.695Z,24.80
2023-01-12T02:14:57.695Z,25.60
2023-01-12T02:15:57.776Z,33.10
2023-01-12T02:16:57.670Z,32.00
2023-01-12T02:17:57.662Z,29.60
2023-01-12T02:18:57.695Z,25.20
2023-01-12T02:19:57.637Z,28.90
2023-01-12T02:20:57.644Z,25.00
2023-01-12T02:21:57.625Z,33.40
2023-01-12T02:22:57.616Z,31.50
2023-01-12T02:23:57.607Z,29.90
2023-01-12T02:24:57.598Z,29.20
2023-01-12T02:25:57.599Z,30.60
2023-01-12T02:26:57.583Z,26.30
2023-01-12T02:27:57.572Z,31.40
2023-01-12T02:28:57.564Z,34.50
2023-01-12T02:29:57.571Z,27.80
2023-01-12T02:30:57.663Z,22.50
2023-01-12T02:31:57.535Z,33.40
2023-01-12T02:32:57.526Z,29.00
2023-01-12T02:33:57.524Z,25.30
2023-01-12T02:34:57.512Z,29.50
2023-01-12T02:35:57.534Z,26.30
2023-01-12T02:36:57.503Z,26.30
2023-01-12T02:37:57.492Z,27.90
2023-01-12T02:38:57.487Z,28.00
2023-01-12T02:39:57.468Z,27.30
2023-01-12T02:40:57.477Z,26.00
2023-01-12T02:41:57.461Z,25.60
2023-01-12T02:42:57.450Z,22.10
2023-01-12T02:43:57.432Z,27.30
2023-01-12T02:44:57.421Z,30.20
2023-01-12T02:45:57.456Z,29.70
2023-01-12T02:46:57.406Z,23.00
2023-01-12T02:47:57.395Z,25.60
2023-01-12T02:48:57.397Z,24.70
2023-01-12T02:49:57.378Z,23.80
2023-01-12T02:50:57.443Z,22.00
2023-01-12T02:51:57.413Z,25.80
2023-01-12T02:52:57.351Z,38.50
2023-01-12T02:53:57.374Z,29.80
2023-01-12T02:54:58.343Z,30.40
2023-01-12T02:55:57.336Z,25.80
2023-01-12T02:56:57.320Z,24.30
2023-01-12T02:57:57.360Z,30.20
2023-01-12T02:58:57.324Z,24.70
2023-01-12T02:59:57.289Z,25.70
2023-01-12T03:00:57.396Z,29.80
2023-01-12T03:01:57.266Z,21.10
2023-01-12T03:02:57.311Z,23.10
2023-01-12T03:03:57.901Z,27.40
2023-01-12T03:04:57.258Z,24.20
2023-01-12T03:05:57.261Z,22.50
2023-01-12T03:06:57.229Z,33.10
2023-01-12T03:07:57.215Z,25.00
2023-01-12T03:08:57.208Z,31.30
2023-01-12T03:09:57.198Z,30.50
2023-01-12T03:10:57.199Z,23.70
2023-01-12T03:11:57.189Z,26.60
2023-01-12T03:12:57.167Z,25.80
2023-01-12T03:13:57.168Z,22.70
2023-01-12T03:14:57.166Z,26.70
2023-01-12T03:32:12.773Z,21.80
2023-01-12T03:33:04.922Z,22.90
2023-01-12T03:34:04.913Z,23.80
2023-01-12T03:35:04.909Z,21.50
2023-01-12T03:36:04.903Z,21.00
2023-01-12T03:37:04.890Z,24.60
2023-01-12T03:38:04.881Z,21.10
2023-01-12T03:39:04.868Z,20.10
2023-01-12T03:40:04.860Z,24.80
2023-01-12T03:41:04.868Z,23.20
2023-01-12T03:42:04.844Z,22.40
2023-01-12T03:43:04.845Z,24.80
2023-01-12T03:44:04.830Z,21.30
2023-01-12T03:45:04.819Z,25.60
2023-01-12T03:46:04.813Z,19.40
2023-01-12T03:47:04.891Z,28.00
2023-01-12T03:48:04.887Z,22.50
2023-01-12T03:49:04.784Z,25.30
2023-01-12T03:50:04.771Z,25.60
2023-01-12T03:51:04.776Z,26.90
2023-01-12T03:52:04.751Z,24.10
2023-01-12T03:53:04.745Z,30.30
2023-01-12T03:54:04.733Z,22.80
2023-01-12T03:55:04.728Z,24.10
2023-01-12T03:56:04.735Z,20.80
2023-01-12T03:57:04.712Z,24.30
2023-01-12T03:58:04.696Z,21.00
2023-01-12T03:59:04.695Z,27.70
2023-01-12T04:00:04.685Z,22.30
2023-01-12T04:01:04.831Z,29.20
2023-01-12T04:02:05.776Z,31.90
2023-01-12T04:03:05.774Z,25.70
2023-01-12T04:04:05.761Z,23.30
2023-01-12T04:05:05.746Z,27.90
2023-01-12T04:06:05.744Z,24.20
2023-01-12T04:07:05.752Z,29.00
2023-01-12T04:08:05.720Z,19.40
2023-01-12T04:09:05.708Z,25.80
2023-01-12T04:10:05.707Z,20.90
2023-01-12T04:11:05.700Z,26.50
2023-01-12T04:12:05.683Z,22.40
2023-01-12T04:13:05.665Z,22.70
2023-01-12T04:14:05.661Z,25.00
2023-01-12T04:15:05.649Z,21.30
2023-01-12T04:16:05.727Z,19.50
2023-01-12T04:17:05.638Z,19.30
2023-01-12T04:18:05.626Z,19.60
2023-01-12T04:19:05.616Z,20.90
2023-01-12T04:20:05.603Z,23.20
2023-01-12T04:21:05.617Z,21.00
2023-01-12T04:22:05.595Z,22.20
2023-01-12T04:23:05.588Z,22.20
2023-01-12T04:24:05.595Z,22.20
2023-01-12T04:25:06.714Z,25.60
2023-01-12T04:26:05.564Z,18.50
2023-01-12T04:27:05.545Z,24.80
2023-01-12T04:28:05.549Z,23.40
2023-01-12T04:29:05.529Z,21.40
2023-01-12T04:30:05.537Z,18.80
2023-01-12T04:31:05.527Z,24.00
2023-01-12T04:32:05.527Z,20.40
2023-01-12T04:33:05.512Z,16.10
2023-01-12T04:34:05.487Z,28.80
2023-01-12T04:35:05.478Z,16.70
2023-01-12T04:36:05.482Z,21.50
2023-01-12T04:37:05.460Z,20.70
2023-01-12T04:38:05.454Z,22.10
2023-01-12T04:39:05.444Z,20.40
2023-01-12T04:40:05.436Z,19.90
2023-01-12T04:41:05.442Z,18.30
2023-01-12T04:42:05.430Z,22.00
2023-01-12T04:43:07.633Z,18.90
2023-01-12T04:44:06.416Z,23.00
2023-01-12T04:45:05.405Z,15.40
2023-01-12T04:46:05.473Z,19.70
2023-01-12T04:47:05.399Z,22.50
2023-01-12T04:48:05.373Z,15.60
2023-01-12T04:49:05.367Z,22.40
2023-01-12T04:50:05.346Z,19.90
2023-01-12T04:51:05.345Z,23.00
2023-01-12T04:52:05.340Z,19.30
2023-01-12T04:53:05.362Z,17.90
2023-01-12T04:54:05.310Z,23.40
2023-01-12T04:55:05.310Z,16.60
2023-01-12T04:56:38.228Z,18.10
2023-01-12T04:57:05.285Z,21.80
2023-01-12T04:58:05.278Z,22.10
2023-01-12T04:59:05.271Z,19.40
2023-01-12T05:00:05.265Z,23.00
2023-01-12T05:01:05.292Z,22.00
2023-01-12T05:02:06.276Z,19.70
2023-01-12T05:03:05.233Z,22.60
2023-01-12T05:04:07.582Z,22.10
2023-01-12T05:05:06.212Z,22.30
2023-01-12T05:06:05.199Z,21.60
2023-01-12T05:07:05.239Z,21.30
2023-01-12T05:08:05.181Z,27.80
2023-01-12T05:09:05.169Z,24.00
2023-01-12T05:10:05.174Z,25.00
2023-01-12T05:11:05.163Z,23.00
2023-01-12T05:12:05.158Z,23.50
2023-01-12T05:13:05.160Z,21.50
2023-01-12T05:14:05.129Z,20.30
2023-01-12T05:15:05.119Z,26.80
2023-01-12T05:16:05.107Z,19.70
2023-01-12T05:17:05.122Z,20.40
2023-01-12T05:18:05.084Z,26.60
2023-01-12T05:19:05.078Z,23.90
2023-01-12T05:20:05.122Z,21.80
2023-01-12T05:21:05.064Z,20.80
2023-01-12T05:22:05.072Z,22.10
2023-01-12T05:23:05.046Z,24.80
2023-01-12T05:24:05.035Z,23.70
2023-01-12T05:25:05.018Z,22.50
2023-01-12T05:26:05.035Z,32.60
2023-01-12T05:27:06.021Z,21.50
2023-01-12T05:28:05.004Z,27.30
2023-01-12T05:29:04.988Z,24.60
2023-01-12T05:30:04.982Z,23.70
2023-01-12T05:31:04.992Z,33.60
2023-01-12T05:32:04.968Z,30.70
2023-01-12T05:33:04.950Z,23.60
2023-01-12T05:34:04.960Z,22.90
2023-01-12T05:35:04.995Z,29.70
2023-01-12T05:36:04.926Z,23.00
2023-01-12T05:37:04.929Z,23.60
2023-01-12T05:38:04.905Z,24.30
2023-01-12T05:39:04.904Z,23.50
2023-01-12T05:40:04.888Z,22.00
2023-01-12T05:41:04.881Z,27.40
2023-01-12T05:42:04.881Z,23.60
2023-01-12T05:43:04.862Z,25.00
2023-01-12T05:44:04.852Z,27.10
2023-01-12T05:45:04.859Z,22.30
2023-01-12T05:46:04.874Z,26.30
2023-01-12T05:47:04.841Z,27.90
2023-01-12T05:48:04.831Z,24.10
2023-01-12T05:49:04.817Z,27.10
2023-01-12T05:50:04.806Z,24.30
2023-01-12T05:51:04.794Z,23.40
2023-01-12T05:52:04.817Z,26.40
2023-01-12T05:53:04.786Z,22.20
2023-01-12T05:54:04.774Z,24.70
2023-01-12T05:55:04.752Z,24.00
2023-01-12T05:56:04.752Z,27.00
2023-01-12T05:57:04.745Z,29.20
2023-01-12T05:58:05.729Z,24.00
2023-01-12T05:59:04.741Z,23.30
2023-01-12T06:00:04.719Z,24.20
2023-01-12T06:01:04.724Z,25.80
2023-01-12T06:02:04.753Z,23.00
2023-01-12T06:03:04.684Z,24.30
2023-01-12T06:04:04.679Z,27.00
2023-01-12T06:05:04.668Z,27.70
2023-01-12T06:06:04.658Z,25.30
2023-01-12T06:07:04.657Z,21.70
2023-01-12T06:08:04.650Z,27.40
2023-01-12T06:09:04.648Z,23.40
2023-01-12T06:10:04.637Z,28.20
2023-01-12T06:11:04.615Z,21.40
2023-01-12T06:12:04.623Z,26.90
2023-01-12T06:13:04.604Z,22.40
2023-01-12T06:14:04.588Z,27.10
2023-01-12T06:15:04.584Z,25.80
2023-01-12T06:16:04.603Z,24.60
2023-01-12T06:17:04.588Z,24.60
2023-01-12T06:18:04.553Z,24.50
2023-01-12T06:19:04.551Z,20.70
2023-01-12T06:20:04.541Z,26.30
2023-01-12T06:21:04.531Z,24.80
2023-01-12T06:22:04.531Z,26.30
2023-01-12T06:23:04.513Z,29.00
2023-01-12T06:24:04.562Z,27.70
2023-01-12T06:25:04.500Z,24.50
2023-01-12T06:26:04.500Z,26.70
2023-01-12T06:27:04.489Z,25.90
2023-01-12T06:28:04.471Z,24.40
2023-01-12T06:29:04.465Z,27.40
2023-01-12T06:30:04.485Z,28.60
2023-01-12T06:31:04.480Z,24.80
2023-01-12T06:32:04.456Z,22.60
2023-01-12T06:33:04.428Z,24.50
2023-01-12T06:34:04.423Z,30.00
2023-01-12T06:35:17.955Z,28.70
2023-01-12T06:36:06.406Z,31.50
2023-01-12T06:37:04.393Z,28.10
2023-01-12T06:38:05.387Z,26.80
2023-01-12T06:39:04.388Z,25.00
2023-01-12T06:40:04.363Z,22.80
2023-01-12T06:41:04.379Z,27.20
2023-01-12T06:42:04.373Z,23.40
2023-01-12T06:43:04.354Z,23.80
2023-01-12T06:44:04.327Z,29.90
2023-01-12T06:45:04.321Z,30.20
2023-01-12T06:46:04.346Z,28.40
2023-01-12T06:47:04.331Z,20.90
2023-01-12T06:48:04.311Z,20.90
2023-01-12T06:49:04.309Z,22.50
2023-01-12T06:50:04.279Z,23.60
2023-01-12T06:51:04.269Z,20.80
2023-01-12T06:52:04.272Z,22.60
2023-01-12T06:53:04.250Z,23.70
2023-01-12T06:54:04.249Z,24.90
2023-01-12T06:55:04.241Z,18.50
2023-01-12T06:56:04.221Z,24.10
2023-01-12T06:57:04.244Z,22.30
2023-01-12T06:58:04.222Z,20.50
2023-01-12T06:59:04.217Z,19.50
2023-01-12T07:00:04.189Z,17.70
2023-01-12T07:01:04.202Z,20.40
2023-01-12T07:02:04.185Z,20.50
2023-01-12T07:03:04.180Z,23.00
2023-01-12T07:04:04.175Z,22.60
2023-01-12T07:05:04.143Z,21.10
2023-01-12T07:06:04.139Z,18.80
2023-01-12T07:07:04.136Z,19.90
2023-01-12T07:08:04.130Z,25.60
2023-01-12T07:09:04.115Z,19.40
2023-01-12T07:10:04.103Z,16.80
2023-01-12T07:11:04.093Z,13.70
2023-01-12T07:12:04.091Z,21.90
2023-01-12T07:13:04.073Z,18.90
2023-01-12T07:14:04.068Z,12.70
2023-01-12T07:15:04.063Z,19.80
2023-01-12T07:16:04.094Z,17.90
2023-01-12T07:17:04.051Z,21.00
2023-01-12T07:18:04.106Z,20.40
2023-01-12T07:19:04.043Z,16.30
2023-01-12T07:20:04.056Z,14.10
2023-01-12T07:21:04.007Z,19.10
2023-01-12T07:22:04.025Z,18.10
2023-01-12T07:23:03.987Z,20.40
2023-01-12T07:24:03.982Z,23.20
2023-01-12T07:25:03.981Z,22.80
2023-01-12T07:26:04.104Z,19.40
2023-01-12T07:27:03.960Z,19.40
2023-01-12T07:28:03.942Z,16.50
2023-01-12T07:29:04.140Z,15.50
2023-01-12T07:30:03.933Z,14.60
2023-01-12T07:31:03.943Z,18.10
2023-01-12T07:32:03.922Z,20.50
2023-01-12T07:33:03.896Z,17.70
2023-01-12T07:34:03.888Z,18.90
2023-01-12T07:35:03.886Z,16.20
2023-01-12T07:36:03.881Z,19.40
2023-01-12T07:37:03.876Z,15.60
2023-01-12T07:38:03.853Z,19.60
2023-01-12T07:39:03.843Z,21.00
2023-01-12T07:40:03.839Z,16.20
2023-01-12T07:41:03.832Z,17.10
2023-01-12T07:42:03.825Z,20.80
2023-01-12T07:43:03.822Z,16.40
2023-01-12T07:44:03.805Z,15.20
2023-01-12T07:45:03.794Z,12.00
2023-01-12T07:46:03.819Z,14.80
2023-01-12T07:47:03.774Z,20.40
2023-01-12T07:48:03.786Z,16.20
2023-01-12T07:49:03.770Z,14.90
2023-01-12T07:50:03.750Z,13.70
2023-01-12T07:51:03.740Z,13.60
2023-01-12T07:52:03.734Z,18.10
2023-01-12T07:53:03.736Z,18.10
2023-01-12T07:54:03.713Z,17.20
2023-01-12T07:55:03.709Z,19.90
2023-01-12T07:56:03.698Z,10.50
2023-01-12T07:57:03.691Z,15.80
2023-01-12T07:58:03.722Z,17.20
2023-01-12T07:59:03.672Z,18.40
2023-01-12T08:00:03.665Z,13.90
2023-01-12T08:01:03.664Z,12.10
2023-01-12T08:02:03.703Z,13.20
2023-01-12T08:03:03.651Z,13.70
2023-01-12T08:04:03.625Z,15.30
2023-01-12T08:05:03.617Z,11.40
2023-01-12T08:06:03.605Z,12.10
2023-01-12T08:07:03.607Z,11.90
2023-01-12T08:08:03.850Z,13.20
2023-01-12T08:09:03.583Z,15.10
2023-01-12T08:10:03.581Z,15.50
2023-01-12T08:11:03.565Z,13.90
2023-01-12T08:12:03.556Z,14.00
2023-01-12T08:13:03.562Z,11.50
2023-01-12T08:14:03.530Z,14.90
2023-01-12T08:15:04.529Z,14.70
2023-01-12T08:16:03.525Z,11.30
2023-01-12T08:17:03.517Z,10.60
2023-01-12T08:18:05.892Z,13.70
2023-01-12T08:19:04.520Z,15.00
2023-01-12T08:20:03.505Z,12.70
2023-01-12T08:21:03.477Z,12.60
2023-01-12T08:22:03.512Z,10.60
2023-01-12T08:23:03.483Z,10.80
2023-01-12T08:24:03.467Z,12.60
2023-01-12T08:25:03.456Z,8.90
2023-01-12T08:26:03.433Z,10.80
2023-01-12T08:27:03.427Z,11.40
2023-01-12T08:28:03.436Z,9.50
2023-01-12T08:29:03.408Z,8.70
2023-01-12T08:30:03.398Z,11.20
2023-01-12T08:31:03.443Z,8.90
2023-01-12T08:32:04.738Z,8.10
2023-01-12T08:33:03.374Z,8.10
2023-01-12T08:34:03.373Z,6.50
2023-01-12T08:35:03.358Z,12.20
2023-01-12T08:36:03.369Z,10.30
2023-01-12T08:37:03.343Z,9.60
2023-01-12T08:38:03.344Z,10.80
2023-01-12T08:39:03.330Z,8.30
2023-01-12T08:40:03.341Z,8.90
2023-01-12T08:41:03.343Z,14.10
2023-01-12T08:42:03.293Z,6.80
2023-01-12T08:43:03.291Z,10.60
2023-01-12T08:44:03.305Z,7.00
2023-01-12T08:45:03.281Z,6.50
2023-01-12T08:46:03.257Z,6.10
2023-01-12T08:47:03.275Z,5.80
2023-01-12T08:48:03.239Z,8.20
2023-01-12T08:49:03.229Z,8.30
2023-01-12T08:50:03.214Z,6.60
2023-01-12T08:51:04.209Z,6.60
2023-01-12T08:52:03.234Z,8.40
2023-01-12T08:53:03.198Z,7.50
2023-01-12T08:54:04.194Z,7.40
2023-01-12T08:55:03.178Z,8.40
2023-01-12T08:56:03.212Z,6.10
2023-01-12T08:57:03.185Z,7.00
2023-01-12T08:58:03.154Z,7.00
2023-01-12T08:59:03.149Z,6.60
2023-01-12T09:00:03.138Z,5.20
2023-01-12T09:01:03.200Z,7.00
2023-01-12T09:02:03.220Z,5.50
2023-01-12T09:03:03.111Z,8.00
2023-01-12T09:04:03.102Z,4.80
2023-01-12T09:05:03.199Z,5.80
2023-01-12T09:06:03.085Z,6.60
2023-01-12T09:07:03.090Z,9.40
2023-01-12T09:08:03.080Z,6.50
2023-01-12T09:09:03.061Z,8.40
2023-01-12T09:10:03.056Z,9.90
2023-01-12T09:11:03.037Z,8.20
2023-01-12T09:12:03.041Z,11.70
2023-01-12T09:13:03.024Z,8.60
2023-01-12T09:14:03.013Z,6.00
2023-01-12T09:15:03.004Z,5.70
2023-01-12T09:16:12.362Z,7.20
2023-01-12T09:17:05.078Z,7.30
2023-01-12T09:18:02.977Z,7.20
2023-01-12T09:19:02.975Z,7.00
2023-01-12T09:20:02.962Z,6.90
2023-01-12T09:21:02.959Z,5.70
2023-01-12T09:22:02.967Z,6.90
2023-01-12T09:23:02.931Z,6.60
2023-01-12T09:24:02.931Z,7.00
2023-01-12T09:25:02.934Z,6.30
2023-01-12T09:26:02.909Z,5.10
2023-01-12T09:27:02.902Z,5.50
2023-01-12T09:28:02.892Z,7.90
2023-01-12T09:29:02.880Z,7.40
2023-01-12T09:30:02.894Z,8.30
2023-01-12T09:31:02.866Z,4.40
2023-01-12T09:32:02.930Z,8.40
2023-01-12T09:33:02.890Z,8.00
2023-01-12T09:34:02.840Z,10.10
2023-01-12T09:35:02.838Z,5.40
2023-01-12T09:36:02.829Z,6.80
2023-01-12T09:37:02.827Z,9.70
2023-01-12T09:38:02.817Z,5.70
2023-01-12T09:39:03.391Z,5.80
2023-01-12T09:40:02.789Z,7.20
2023-01-12T09:41:02.777Z,7.10
2023-01-12T09:42:02.807Z,9.00
2023-01-12T09:43:02.757Z,9.10
2023-01-12T09:44:02.747Z,9.50
2023-01-12T09:45:02.754Z,9.30
2023-01-12T09:46:02.761Z,5.70
2023-01-12T09:47:02.735Z,8.80
2023-01-12T09:48:02.722Z,8.10
2023-01-12T09:49:02.704Z,9.80
2023-01-12T09:50:09.959Z,10.70
2023-01-12T09:51:04.694Z,8.60
2023-01-12T09:52:02.689Z,10.10
2023-01-12T09:53:02.666Z,6.60
2023-01-12T09:54:02.658Z,7.30
2023-01-12T09:55:02.652Z,6.20
2023-01-12T09:56:02.773Z,6.00
2023-01-12T09:57:02.650Z,8.00
2023-01-12T09:58:02.633Z,6.60
2023-01-12T09:59:02.613Z,7.50
2023-01-12T10:00:02.608Z,6.00
2023-01-12T10:01:02.667Z,6.90
2023-01-12T10:02:02.725Z,8.90
2023-01-12T10:03:02.691Z,6.50
2023-01-12T10:04:02.570Z,7.00
2023-01-12T10:05:02.568Z,7.80
2023-01-12T10:06:02.569Z,5.70
2023-01-12T10:07:02.578Z,11.40
2023-01-12T10:08:02.543Z,7.70
2023-01-12T10:09:02.528Z,6.00
2023-01-12T10:10:02.524Z,6.50
2023-01-12T10:11:02.509Z,4.50
2023-01-12T10:12:02.524Z,5.50
2023-01-12T10:13:02.477Z,6.70
2023-01-12T10:14:02.475Z,5.60
2023-01-12T10:15:02.461Z,6.20
2023-01-12T10:16:02.510Z,7.50
2023-01-12T10:17:02.453Z,4.90
2023-01-12T10:18:02.445Z,6.80
2023-01-12T10:19:02.429Z,5.40
2023-01-12T10:20:02.425Z,5.70
2023-01-12T10:21:02.415Z,10.70
2023-01-12T10:22:02.422Z,8.40
2023-01-12T10:23:02.397Z,8.40
2023-01-12T10:24:02.388Z,8.30
2023-01-12T10:25:02.378Z,7.30
2023-01-12T10:26:02.370Z,5.60
2023-01-12T10:27:02.376Z,7.40
2023-01-12T10:28:02.349Z,7.40
2023-01-12T10:29:02.357Z,5.90
2023-01-12T10:30:02.373Z,9.40
2023-01-12T10:31:02.325Z,5.10
2023-01-12T10:32:02.377Z,10.00
2023-01-12T10:33:02.309Z,6.50
2023-01-12T10:34:02.297Z,5.70
2023-01-12T10:35:02.281Z,6.30
2023-01-12T10:36:02.287Z,5.90
2023-01-12T10:37:02.284Z,7.10
2023-01-12T10:38:02.260Z,6.80
2023-01-12T10:39:02.253Z,5.10
2023-01-12T10:40:02.238Z,5.30
2023-01-12T10:41:02.241Z,6.50
2023-01-12T10:42:02.238Z,5.80
2023-01-12T10:43:06.554Z,4.80
2023-01-12T10:44:03.208Z,10.50
2023-01-12T10:45:02.204Z,5.50
2023-01-12T10:46:02.211Z,6.30
2023-01-12T10:47:02.208Z,5.20
2023-01-12T10:48:02.180Z,5.20
2023-01-12T10:49:02.160Z,8.30
2023-01-12T10:50:02.159Z,5.00
2023-01-12T10:51:02.139Z,6.80
2023-01-12T10:52:02.286Z,7.70
2023-01-12T10:53:02.159Z,4.90
2023-01-12T10:54:02.116Z,6.00
2023-01-12T10:55:02.160Z,5.10
2023-01-12T10:56:02.119Z,5.40
2023-01-12T10:57:34.016Z,7.10
2023-01-12T10:58:02.082Z,7.90
2023-01-12T10:59:02.099Z,5.70
2023-01-12T11:00:02.082Z,7.70
2023-01-12T11:01:02.226Z,8.90
2023-01-12T11:02:02.200Z,5.30
2023-01-12T11:03:02.088Z,8.50
2023-01-12T11:04:02.033Z,6.60
2023-01-12T11:05:02.021Z,7.90
2023-01-12T11:06:02.015Z,5.00
2023-01-12T11:07:04.970Z,4.10
2023-01-12T11:08:02.001Z,5.70
2023-01-12T11:09:01.991Z,5.10
2023-01-12T11:10:02.005Z,4.80
2023-01-12T11:11:01.976Z,7.60
2023-01-12T11:12:01.970Z,8.60
2023-01-12T11:13:01.963Z,7.00
2023-01-12T11:14:01.949Z,6.70
2023-01-12T11:15:01.954Z,8.70
2023-01-12T11:16:01.949Z,9.30
2023-01-12T11:17:01.965Z,10.20
2023-01-12T11:18:01.907Z,6.80
2023-01-12T11:19:01.903Z,5.70
2023-01-12T11:20:01.909Z,8.90
2023-01-12T11:21:01.907Z,10.20
2023-01-12T11:22:01.886Z,8.90
2023-01-12T11:23:01.863Z,6.60
2023-01-12T11:24:01.859Z,6.50
2023-01-12T11:25:01.858Z,6.40
2023-01-12T11:26:01.864Z,6.70
2023-01-12T11:27:01.856Z,5.50
2023-01-12T11:28:01.868Z,7.30
2023-01-12T11:29:01.812Z,5.50
2023-01-12T11:30:01.832Z,8.80
2023-01-12T11:31:01.881Z,7.20
2023-01-12T11:32:01.805Z,5.90
2023-01-12T11:33:01.768Z,7.20
2023-01-12T11:34:01.766Z,6.50
2023-01-12T11:35:04.515Z,5.30
2023-01-12T11:36:02.737Z,6.10
2023-01-12T11:37:01.759Z,7.30
2023-01-12T11:38:01.751Z,6.50
2023-01-12T11:39:01.719Z,7.80
2023-01-12T11:40:01.709Z,7.00
2023-01-12T11:41:01.709Z,8.10
2023-01-12T11:42:01.710Z,3.50
2023-01-12T11:43:01.685Z,5.40
2023-01-12T11:44:01.675Z,8.50
2023-01-12T11:45:01.767Z,5.30
2023-01-12T11:46:01.678Z,5.80
2023-01-12T11:47:01.667Z,7.10
2023-01-12T11:48:01.637Z,6.90
2023-01-12T11:49:01.622Z,7.80
2023-01-12T11:50:01.645Z,7.10
2023-01-12T11:51:01.613Z,5.70
2023-01-12T11:52:01.615Z,6.40
2023-01-12T11:53:01.605Z,7.30
2023-01-12T11:54:01.593Z,5.80
2023-01-12T11:55:02.577Z,5.30
2023-01-12T11:56:01.587Z,4.10
2023-01-12T11:57:01.553Z,5.40
2023-01-12T11:58:01.557Z,5.60
2023-01-12T11:59:01.598Z,5.50
2023-01-12T12:00:01.589Z,6.30
2023-01-12T12:01:01.597Z,7.60
2023-01-12T12:02:01.558Z,4.30
2023-01-12T12:03:01.516Z,5.10
2023-01-12T12:04:01.604Z,4.80
2023-01-12T12:05:01.535Z,6.80
2023-01-12T12:06:01.525Z,4.10
2023-01-12T12:07:01.476Z,4.20
2023-01-12T12:08:01.475Z,5.50
2023-01-12T12:09:01.468Z,6.80
2023-01-12T12:10:01.519Z,5.70
2023-01-12T12:11:01.441Z,5.00
2023-01-12T12:12:01.437Z,5.30
2023-01-12T12:13:01.432Z,6.00
2023-01-12T12:14:01.410Z,5.90
2023-01-12T12:15:01.409Z,5.20
2023-01-12T12:16:01.417Z,4.30
2023-01-12T12:17:01.385Z,7.10
2023-01-12T12:18:01.395Z,6.30
2023-01-12T12:19:01.365Z,6.00
2023-01-12T12:20:01.366Z,6.30
2023-01-12T12:21:01.343Z,5.70
2023-01-12T12:22:01.338Z,6.40
2023-01-12T12:23:01.337Z,5.40
2023-01-12T12:24:01.337Z,6.30
2023-01-12T12:25:01.339Z,5.90
2023-01-12T12:26:01.320Z,7.50
2023-01-12T12:27:01.291Z,5.60
2023-01-12T12:28:01.320Z,6.30
2023-01-12T12:29:01.306Z,6.00
2023-01-12T12:30:01.291Z,5.60
2023-01-12T12:31:01.315Z,7.10
2023-01-12T12:32:01.259Z,6.20
2023-01-12T12:33:01.269Z,5.40
2023-01-12T12:34:01.233Z,5.50
2023-01-12T12:35:01.212Z,7.70
2023-01-12T12:36:01.207Z,5.70
2023-01-12T12:37:01.200Z,6.00
2023-01-12T12:38:01.195Z,6.80
2023-01-12T12:39:01.187Z,6.70
2023-01-12T12:40:01.163Z,6.30
2023-01-12T12:41:01.184Z,7.30
2023-01-12T12:42:01.142Z,4.60
2023-01-12T12:43:01.147Z,4.00
2023-01-12T12:44:01.131Z,3.80
2023-01-12T12:45:01.124Z,3.90
2023-01-12T12:46:01.146Z,6.10
2023-01-12T12:47:01.105Z,5.30
2023-01-12T12:48:01.112Z,6.50
2023-01-12T12:49:01.108Z,7.30
2023-01-12T12:50:01.071Z,5.00
2023-01-12T12:51:01.059Z,4.30
2023-01-12T12:52:01.068Z,6.20
2023-01-12T12:53:01.086Z,4.90
2023-01-12T12:54:01.056Z,6.20
2023-01-12T12:55:01.028Z,6.10
2023-01-12T12:56:01.031Z,4.60
2023-01-12T12:57:01.007Z,7.00
2023-01-12T12:58:01.026Z,6.20
2023-01-12T12:59:00.997Z,5.50
2023-01-12T13:00:01.048Z,4.50
2023-01-12T13:01:00.993Z,4.30
2023-01-12T13:02:01.073Z,4.60
2023-01-12T13:03:00.977Z,5.80
2023-01-12T13:04:00.958Z,5.00
2023-01-12T13:05:02.519Z,4.60
2023-01-12T13:06:00.925Z,6.50
2023-01-12T13:07:00.916Z,4.70
2023-01-12T13:08:00.918Z,5.90
2023-01-12T13:09:00.908Z,4.70
2023-01-12T13:10:00.893Z,4.60
2023-01-12T13:11:00.888Z,5.90
2023-01-12T13:12:00.875Z,5.50
2023-01-12T13:13:00.877Z,7.40
2023-01-12T13:14:00.857Z,4.90
2023-01-12T13:15:00.854Z,6.10
2023-01-12T13:16:00.889Z,4.20
2023-01-12T13:17:00.835Z,6.10
2023-01-12T13:18:00.825Z,6.90